Fox Creek, Idaho
Current Conditions -  °F | °C
As of 4:26 AM on Sunday 21 Dec 2014 (Local Time) from KDIJ Reporting Station
Light Snow Light Snow  
Wind Chill: 22°   Ceiling: 2300
Heat Index: 32°   Visibility: 4mi
Dew Point: 30°   Wind: 14mph
Humidity: 93%   Direction: 160°SSE
Pressure: 29.77"   Gusts: NA
Location:  43.6065°N, 111.138°W
Report Text: KDIJ 211126Z AUTO 16012KT 4SM -SN BR FEW002 SCT013 BKN023 00/M01 A2977 RMK AO2 SNB1058 P0000
Loading
Personal Weather Stations






























Interactive Weather Map New forecast layout! Learn more

10-Day Weather Forecast

Advertisements
Track Severe Weather on mobile